sensor_id;sensor_type;location;lat;lon;timestamp;temperature;humidity
612;DHT22;293;53.888;11.464;2023-03-03T00:00:45;3.10;99.90
612;DHT22;293;53.888;11.464;2023-03-03T00:03:16;3.10;99.90
612;DHT22;293;53.888;11.464;2023-03-03T00:05:46;3.20;99.90
612;DHT22;293;53.888;11.464;2023-03-03T00:08:14;3.20;99.90
612;DHT22;293;53.888;11.464;2023-03-03T00:10:41;3.30;99.90
612;DHT22;293;53.888;11.464;2023-03-03T00:13:14;3.30;99.90
612;DHT22;293;53.888;11.464;2023-03-03T00:15:41;3.30;99.90
612;DHT22;293;53.888;11.464;2023-03-03T00:18:18;3.30;99.90
612;DHT22;293;53.888;11.464;2023-03-03T00:20:51;3.30;99.90
612;DHT22;293;53.888;11.464;2023-03-03T00:23:34;3.30;99.90
612;DHT22;293;53.888;11.464;2023-03-03T00:26:15;3.30;99.90
612;DHT22;293;53.888;11.464;2023-03-03T00:28:45;3.30;99.90
612;DHT22;293;53.888;11.464;2023-03-03T00:31:15;3.30;99.90
612;DHT22;293;53.888;11.464;2023-03-03T00:33:46;3.30;99.90
612;DHT22;293;53.888;11.464;2023-03-03T00:36:27;3.30;99.90
612;DHT22;293;53.888;11.464;2023-03-03T00:39:09;3.30;99.90
612;DHT22;293;53.888;11.464;2023-03-03T00:41:38;3.40;99.90
612;DHT22;293;53.888;11.464;2023-03-03T00:44:30;3.30;99.90
612;DHT22;293;53.888;11.464;2023-03-03T00:47:02;3.30;99.90
612;DHT22;293;53.888;11.464;2023-03-03T00:49:39;3.30;99.90
612;DHT22;293;53.888;11.464;2023-03-03T00:52:13;3.30;99.90
612;DHT22;293;53.888;11.464;2023-03-03T00:54:40;3.40;99.90
612;DHT22;293;53.888;11.464;2023-03-03T00:57:07;3.30;99.90
612;DHT22;293;53.888;11.464;2023-03-03T00:59:34;3.30;99.90
612;DHT22;293;53.888;11.464;2023-03-03T01:02:01;3.30;99.90
612;DHT22;293;53.888;11.464;2023-03-03T01:04:28;3.30;99.90
612;DHT22;293;53.888;11.464;2023-03-03T01:06:54;3.30;99.90
612;DHT22;293;53.888;11.464;2023-03-03T01:09:23;3.40;99.90
612;DHT22;293;53.888;11.464;2023-03-03T01:11:50;3.30;99.90
612;DHT22;293;53.888;11.464;2023-03-03T01:14:18;3.30;99.90
612;DHT22;293;53.888;11.464;2023-03-03T01:16:44;3.50;99.90
612;DHT22;293;53.888;11.464;2023-03-03T01:19:11;3.40;99.90
612;DHT22;293;53.888;11.464;2023-03-03T01:21:38;3.40;99.90
612;DHT22;293;53.888;11.464;2023-03-03T01:24:05;3.50;99.90
612;DHT22;293;53.888;11.464;2023-03-03T01:26:33;3.40;99.90
612;DHT22;293;53.888;11.464;2023-03-03T01:29:00;3.40;99.90
612;DHT22;293;53.888;11.464;2023-03-03T01:31:27;3.40;99.90
612;DHT22;293;53.888;11.464;2023-03-03T01:33:54;3.40;99.90
612;DHT22;293;53.888;11.464;2023-03-03T01:36:24;3.40;99.90
612;DHT22;293;53.888;11.464;2023-03-03T01:38:51;3.40;99.90
612;DHT22;293;53.888;11.464;2023-03-03T01:41:19;3.40;99.90
612;DHT22;293;53.888;11.464;2023-03-03T01:43:48;3.40;99.90
612;DHT22;293;53.888;11.464;2023-03-03T01:46:30;3.40;99.90
612;DHT22;293;53.888;11.464;2023-03-03T01:49:01;3.30;99.90
612;DHT22;293;53.888;11.464;2023-03-03T01:51:31;3.30;99.90
612;DHT22;293;53.888;11.464;2023-03-03T01:54:00;3.30;99.90
612;DHT22;293;53.888;11.464;2023-03-03T01:56:28;3.30;99.90
612;DHT22;293;53.888;11.464;2023-03-03T01:58:59;3.30;99.90
612;DHT22;293;53.888;11.464;2023-03-03T02:01:28;3.30;99.90
612;DHT22;293;53.888;11.464;2023-03-03T02:03:56;3.30;99.90
612;DHT22;293;53.888;11.464;2023-03-03T02:06:26;3.20;99.90
612;DHT22;293;53.888;11.464;2023-03-03T02:08:59;3.20;99.90
612;DHT22;293;53.888;11.464;2023-03-03T02:11:30;3.10;99.90
612;DHT22;293;53.888;11.464;2023-03-03T02:13:59;3.10;99.90
612;DHT22;293;53.888;11.464;2023-03-03T02:16:26;3.20;99.90
612;DHT22;293;53.888;11.464;2023-03-03T02:18:53;3.10;99.90
612;DHT22;293;53.888;11.464;2023-03-03T02:21:21;3.10;99.90
612;DHT22;293;53.888;11.464;2023-03-03T02:23:52;3.10;99.90
612;DHT22;293;53.888;11.464;2023-03-03T02:26:22;3.20;99.90
612;DHT22;293;53.888;11.464;2023-03-03T02:28:50;3.10;99.90
612;DHT22;293;53.888;11.464;2023-03-03T02:31:19;3.10;99.90
612;DHT22;293;53.888;11.464;2023-03-03T02:33:47;3.00;99.90
612;DHT22;293;53.888;11.464;2023-03-03T02:36:16;3.10;99.90
612;DHT22;293;53.888;11.464;2023-03-03T02:38:47;3.00;99.90
612;DHT22;293;53.888;11.464;2023-03-03T02:41:25;3.00;99.90
612;DHT22;293;53.888;11.464;2023-03-03T02:43:59;3.00;99.90
612;DHT22;293;53.888;11.464;2023-03-03T02:46:26;3.00;99.90
612;DHT22;293;53.888;11.464;2023-03-03T02:48:53;2.90;99.90
612;DHT22;293;53.888;11.464;2023-03-03T02:51:20;2.90;99.90
612;DHT22;293;53.888;11.464;2023-03-03T02:53:47;2.80;99.90
612;DHT22;293;53.888;11.464;2023-03-03T02:56:14;2.80;99.90
612;DHT22;293;53.888;11.464;2023-03-03T02:58:42;2.80;99.90
612;DHT22;293;53.888;11.464;2023-03-03T03:01:09;2.70;99.90
612;DHT22;293;53.888;11.464;2023-03-03T03:03:36;2.70;99.90
612;DHT22;293;53.888;11.464;2023-03-03T03:06:03;2.70;99.90
612;DHT22;293;53.888;11.464;2023-03-03T03:08:30;2.70;99.90
612;DHT22;293;53.888;11.464;2023-03-03T03:10:57;2.80;99.90
612;DHT22;293;53.888;11.464;2023-03-03T03:13:24;2.70;99.90
612;DHT22;293;53.888;11.464;2023-03-03T03:15:53;2.80;99.90
612;DHT22;293;53.888;11.464;2023-03-03T03:18:20;2.70;99.90
612;DHT22;293;53.888;11.464;2023-03-03T03:20:47;2.90;99.90
612;DHT22;293;53.888;11.464;2023-03-03T03:23:14;2.60;99.90
612;DHT22;293;53.888;11.464;2023-03-03T03:25:41;2.60;99.90
612;DHT22;293;53.888;11.464;2023-03-03T03:28:10;2.60;99.90
612;DHT22;293;53.888;11.464;2023-03-03T03:30:37;2.60;99.90
612;DHT22;293;53.888;11.464;2023-03-03T03:33:06;2.60;99.90
612;DHT22;293;53.888;11.464;2023-03-03T03:35:35;2.60;99.90
612;DHT22;293;53.888;11.464;2023-03-03T03:38:02;2.60;99.90
612;DHT22;293;53.888;11.464;2023-03-03T03:40:29;2.50;99.90
612;DHT22;293;53.888;11.464;2023-03-03T03:42:56;2.60;99.90
612;DHT22;293;53.888;11.464;2023-03-03T03:45:23;2.50;99.90
612;DHT22;293;53.888;11.464;2023-03-03T03:47:50;2.50;99.90
612;DHT22;293;53.888;11.464;2023-03-03T03:50:18;2.40;99.90
612;DHT22;293;53.888;11.464;2023-03-03T03:52:45;2.40;99.90
612;DHT22;293;53.888;11.464;2023-03-03T03:55:13;2.40;99.90
612;DHT22;293;53.888;11.464;2023-03-03T03:57:40;2.40;99.90
612;DHT22;293;53.888;11.464;2023-03-03T04:00:08;2.40;99.90
612;DHT22;293;53.888;11.464;2023-03-03T04:02:35;2.40;99.90
612;DHT22;293;53.888;11.464;2023-03-03T04:05:03;2.40;99.90
612;DHT22;293;53.888;11.464;2023-03-03T04:07:31;2.30;99.90
612;DHT22;293;53.888;11.464;2023-03-03T04:09:58;2.30;99.90
612;DHT22;293;53.888;11.464;2023-03-03T04:12:25;2.40;99.90
612;DHT22;293;53.888;11.464;2023-03-03T04:14:52;2.30;99.90
612;DHT22;293;53.888;11.464;2023-03-03T04:17:20;2.30;99.90
612;DHT22;293;53.888;11.464;2023-03-03T04:19:47;2.20;99.90
612;DHT22;293;53.888;11.464;2023-03-03T04:22:14;2.20;99.90
612;DHT22;293;53.888;11.464;2023-03-03T04:24:42;2.20;99.90
612;DHT22;293;53.888;11.464;2023-03-03T04:27:09;2.20;99.90
612;DHT22;293;53.888;11.464;2023-03-03T04:29:37;2.20;99.90
612;DHT22;293;53.888;11.464;2023-03-03T04:32:04;2.10;99.90
612;DHT22;293;53.888;11.464;2023-03-03T04:34:31;2.10;99.90
612;DHT22;293;53.888;11.464;2023-03-03T04:36:58;2.10;99.90
612;DHT22;293;53.888;11.464;2023-03-03T04:39:27;2.10;99.90
612;DHT22;293;53.888;11.464;2023-03-03T04:41:55;2.10;99.90
612;DHT22;293;53.888;11.464;2023-03-03T04:44:22;2.10;99.90
612;DHT22;293;53.888;11.464;2023-03-03T04:46:48;2.10;99.90
612;DHT22;293;53.888;11.464;2023-03-03T04:49:15;2.10;99.90
612;DHT22;293;53.888;11.464;2023-03-03T04:51:42;2.10;99.90
612;DHT22;293;53.888;11.464;2023-03-03T04:54:09;2.10;99.90
612;DHT22;293;53.888;11.464;2023-03-03T04:56:36;2.00;99.90
612;DHT22;293;53.888;11.464;2023-03-03T04:59:04;2.00;99.90
612;DHT22;293;53.888;11.464;2023-03-03T05:01:31;2.00;99.90
612;DHT22;293;53.888;11.464;2023-03-03T05:03:58;1.90;99.90
612;DHT22;293;53.888;11.464;2023-03-03T05:06:25;1.90;99.90
612;DHT22;293;53.888;11.464;2023-03-03T05:08:52;1.90;99.90
612;DHT22;293;53.888;11.464;2023-03-03T05:11:19;1.80;99.90
612;DHT22;293;53.888;11.464;2023-03-03T05:13:46;1.80;99.90
612;DHT22;293;53.888;11.464;2023-03-03T05:16:14;1.80;99.90
612;DHT22;293;53.888;11.464;2023-03-03T05:18:41;1.80;99.90
612;DHT22;293;53.888;11.464;2023-03-03T05:21:08;1.70;99.90
612;DHT22;293;53.888;11.464;2023-03-03T05:23:34;1.70;99.90
612;DHT22;293;53.888;11.464;2023-03-03T05:26:01;1.70;99.90
612;DHT22;293;53.888;11.464;2023-03-03T05:31:34;1.80;99.90
612;DHT22;293;53.888;11.464;2023-03-03T05:34:01;1.70;99.90
612;DHT22;293;53.888;11.464;2023-03-03T05:36:27;1.70;99.90
612;DHT22;293;53.888;11.464;2023-03-03T05:38:54;1.70;99.90
612;DHT22;293;53.888;11.464;2023-03-03T05:41:21;1.70;99.90
612;DHT22;293;53.888;11.464;2023-03-03T05:43:48;1.70;99.90
612;DHT22;293;53.888;11.464;2023-03-03T05:46:15;1.70;99.90
612;DHT22;293;53.888;11.464;2023-03-03T05:48:43;1.70;99.90
612;DHT22;293;53.888;11.464;2023-03-03T05:51:10;1.70;99.90
612;DHT22;293;53.888;11.464;2023-03-03T05:53:37;1.60;99.90
612;DHT22;293;53.888;11.464;2023-03-03T05:56:04;1.70;99.90
612;DHT22;293;53.888;11.464;2023-03-03T05:58:31;1.70;99.90
612;DHT22;293;53.888;11.464;2023-03-03T06:00:58;1.60;99.90
612;DHT22;293;53.888;11.464;2023-03-03T06:03:25;1.60;99.90
612;DHT22;293;53.888;11.464;2023-03-03T06:05:53;1.60;99.90
612;DHT22;293;53.888;11.464;2023-03-03T06:08:20;3.10;99.90
612;DHT22;293;53.888;11.464;2023-03-03T06:10:47;1.60;99.90
612;DHT22;293;53.888;11.464;2023-03-03T06:13:13;1.60;99.90
612;DHT22;293;53.888;11.464;2023-03-03T06:15:40;1.70;99.90
612;DHT22;293;53.888;11.464;2023-03-03T06:18:07;1.70;99.90
612;DHT22;293;53.888;11.464;2023-03-03T06:20:34;1.60;99.90
612;DHT22;293;53.888;11.464;2023-03-03T06:23:02;1.60;99.90
612;DHT22;293;53.888;11.464;2023-03-03T06:25:30;1.70;99.90
612;DHT22;293;53.888;11.464;2023-03-03T06:28:00;1.70;99.90
612;DHT22;293;53.888;11.464;2023-03-03T06:30:27;1.70;99.90
612;DHT22;293;53.888;11.464;2023-03-03T06:32:55;2.90;99.90
612;DHT22;293;53.888;11.464;2023-03-03T06:35:22;1.90;99.90
612;DHT22;293;53.888;11.464;2023-03-03T06:37:49;2.00;99.90
612;DHT22;293;53.888;11.464;2023-03-03T06:40:17;2.00;99.90
612;DHT22;293;53.888;11.464;2023-03-03T06:42:44;2.10;99.90
612;DHT22;293;53.888;11.464;2023-03-03T06:45:11;2.10;99.90
612;DHT22;293;53.888;11.464;2023-03-03T06:47:39;2.10;99.90
612;DHT22;293;53.888;11.464;2023-03-03T06:50:07;2.10;99.90
612;DHT22;293;53.888;11.464;2023-03-03T06:52:33;2.20;99.90
612;DHT22;293;53.888;11.464;2023-03-03T06:55:10;2.30;99.90
612;DHT22;293;53.888;11.464;2023-03-03T06:57:38;2.30;99.90
612;DHT22;293;53.888;11.464;2023-03-03T07:00:15;2.30;99.90
612;DHT22;293;53.888;11.464;2023-03-03T07:02:42;2.40;99.90
612;DHT22;293;53.888;11.464;2023-03-03T07:05:14;2.40;99.90
612;DHT22;293;53.888;11.464;2023-03-03T07:07:41;2.40;99.90
612;DHT22;293;53.888;11.464;2023-03-03T07:10:17;2.50;99.90
612;DHT22;293;53.888;11.464;2023-03-03T07:12:47;2.50;99.90
612;DHT22;293;53.888;11.464;2023-03-03T07:15:15;2.60;99.90
612;DHT22;293;53.888;11.464;2023-03-03T07:17:44;2.70;99.90
612;DHT22;293;53.888;11.464;2023-03-03T07:20:19;2.70;99.90
612;DHT22;293;53.888;11.464;2023-03-03T07:22:46;2.80;99.90
612;DHT22;293;53.888;11.464;2023-03-03T07:25:21;2.90;99.90
612;DHT22;293;53.888;11.464;2023-03-03T07:27:52;3.00;99.90
612;DHT22;293;53.888;11.464;2023-03-03T07:30:26;3.20;99.90
612;DHT22;293;53.888;11.464;2023-03-03T07:32:54;3.30;99.90
612;DHT22;293;53.888;11.464;2023-03-03T07:35:30;3.50;99.90
612;DHT22;293;53.888;11.464;2023-03-03T07:38:01;3.60;99.90
612;DHT22;293;53.888;11.464;2023-03-03T07:40:34;3.60;99.90
612;DHT22;293;53.888;11.464;2023-03-03T07:43:21;3.60;99.90
612;DHT22;293;53.888;11.464;2023-03-03T07:45:54;3.60;99.90
612;DHT22;293;53.888;11.464;2023-03-03T07:48:25;3.70;99.90
612;DHT22;293;53.888;11.464;2023-03-03T07:50:52;3.70;99.90
612;DHT22;293;53.888;11.464;2023-03-03T07:53:23;3.80;99.90
612;DHT22;293;53.888;11.464;2023-03-03T07:55:51;4.00;99.90
612;DHT22;293;53.888;11.464;2023-03-03T07:58:24;4.10;99.90
612;DHT22;293;53.888;11.464;2023-03-03T08:03:52;4.20;99.90
612;DHT22;293;53.888;11.464;2023-03-03T08:06:43;4.20;99.90
612;DHT22;293;53.888;11.464;2023-03-03T08:09:35;4.20;99.90
612;DHT22;293;53.888;11.464;2023-03-03T08:15:21;4.20;99.90
612;DHT22;293;53.888;11.464;2023-03-03T08:17:49;4.20;99.90
612;DHT22;293;53.888;11.464;2023-03-03T08:20:53;4.20;99.90
612;DHT22;293;53.888;11.464;2023-03-03T08:23:21;4.30;99.90
612;DHT22;293;53.888;11.464;2023-03-03T08:25:49;4.50;99.90
612;DHT22;293;53.888;11.464;2023-03-03T08:28:17;4.70;99.90
612;DHT22;293;53.888;11.464;2023-03-03T08:30:46;4.80;99.90
612;DHT22;293;53.888;11.464;2023-03-03T08:33:13;4.90;99.90
612;DHT22;293;53.888;11.464;2023-03-03T08:35:40;5.00;99.90
612;DHT22;293;53.888;11.464;2023-03-03T08:38:07;5.10;99.90
612;DHT22;293;53.888;11.464;2023-03-03T08:40:35;5.10;99.90
612;DHT22;293;53.888;11.464;2023-03-03T08:43:02;5.10;99.90
612;DHT22;293;53.888;11.464;2023-03-03T08:45:29;5.10;99.90
612;DHT22;293;53.888;11.464;2023-03-03T08:47:57;5.20;99.90
612;DHT22;293;53.888;11.464;2023-03-03T08:50:25;5.20;99.90
612;DHT22;293;53.888;11.464;2023-03-03T08:52:52;5.30;99.90
612;DHT22;293;53.888;11.464;2023-03-03T08:55:19;5.40;99.90
612;DHT22;293;53.888;11.464;2023-03-03T08:57:46;5.50;99.90
612;DHT22;293;53.888;11.464;2023-03-03T09:00:16;5.60;99.90
612;DHT22;293;53.888;11.464;2023-03-03T09:02:42;5.60;99.90
612;DHT22;293;53.888;11.464;2023-03-03T09:05:11;5.60;99.90
612;DHT22;293;53.888;11.464;2023-03-03T09:07:39;5.70;99.90
612;DHT22;293;53.888;11.464;2023-03-03T09:10:07;5.70;99.90
612;DHT22;293;53.888;11.464;2023-03-03T09:12:36;5.70;99.90
612;DHT22;293;53.888;11.464;2023-03-03T09:15:14;5.70;99.90
612;DHT22;293;53.888;11.464;2023-03-03T09:17:42;5.60;99.90
612;DHT22;293;53.888;11.464;2023-03-03T09:20:30;5.40;99.90
612;DHT22;293;53.888;11.464;2023-03-03T09:22:58;5.30;99.90
612;DHT22;293;53.888;11.464;2023-03-03T09:25:30;5.20;99.90
612;DHT22;293;53.888;11.464;2023-03-03T09:27:57;5.30;99.90
612;DHT22;293;53.888;11.464;2023-03-03T09:30:35;5.20;99.90
612;DHT22;293;53.888;11.464;2023-03-03T09:33:28;5.10;99.90
612;DHT22;293;53.888;11.464;2023-03-03T09:36:10;5.00;99.90
612;DHT22;293;53.888;11.464;2023-03-03T09:38:41;4.90;99.90
612;DHT22;293;53.888;11.464;2023-03-03T09:41:22;4.90;99.90
612;DHT22;293;53.888;11.464;2023-03-03T09:44:15;4.80;99.90
612;DHT22;293;53.888;11.464;2023-03-03T09:46:51;4.70;99.90
612;DHT22;293;53.888;11.464;2023-03-03T09:49:28;4.80;99.90
612;DHT22;293;53.888;11.464;2023-03-03T09:52:17;4.70;99.90
612;DHT22;293;53.888;11.464;2023-03-03T09:54:55;4.60;99.90
612;DHT22;293;53.888;11.464;2023-03-03T09:57:32;4.50;99.90
612;DHT22;293;53.888;11.464;2023-03-03T10:00:19;4.50;99.90
612;DHT22;293;53.888;11.464;2023-03-03T10:05:43;4.80;99.90
612;DHT22;293;53.888;11.464;2023-03-03T10:08:29;4.70;99.90
612;DHT22;293;53.888;11.464;2023-03-03T10:11:06;4.70;99.90
612;DHT22;293;53.888;11.464;2023-03-03T10:13:43;4.80;99.90
612;DHT22;293;53.888;11.464;2023-03-03T10:19:28;4.90;99.90
612;DHT22;293;53.888;11.464;2023-03-03T10:22:06;5.00;99.90
612;DHT22;293;53.888;11.464;2023-03-03T10:24:46;5.10;99.90
612;DHT22;293;53.888;11.464;2023-03-03T10:27:27;5.00;99.90
612;DHT22;293;53.888;11.464;2023-03-03T10:30:03;5.10;99.90
612;DHT22;293;53.888;11.464;2023-03-03T10:32:42;5.10;99.90
612;DHT22;293;53.888;11.464;2023-03-03T10:35:28;5.10;99.90
612;DHT22;293;53.888;11.464;2023-03-03T10:38:12;5.10;99.90
612;DHT22;293;53.888;11.464;2023-03-03T10:40:47;5.20;99.90
612;DHT22;293;53.888;11.464;2023-03-03T10:43:41;5.20;99.90
612;DHT22;293;53.888;11.464;2023-03-03T10:46:30;5.30;99.90
612;DHT22;293;53.888;11.464;2023-03-03T10:49:17;5.40;99.90
612;DHT22;293;53.888;11.464;2023-03-03T10:51:55;5.60;99.90
612;DHT22;293;53.888;11.464;2023-03-03T10:54:40;5.60;99.90
612;DHT22;293;53.888;11.464;2023-03-03T10:57:19;5.60;99.90
612;DHT22;293;53.888;11.464;2023-03-03T10:59:59;5.50;99.90
612;DHT22;293;53.888;11.464;2023-03-03T11:02:36;5.50;99.90
612;DHT22;293;53.888;11.464;2023-03-03T11:05:18;5.60;99.90
612;DHT22;293;53.888;11.464;2023-03-03T11:07:50;5.60;99.90
612;DHT22;293;53.888;11.464;2023-03-03T11:10:26;5.60;99.90
612;DHT22;293;53.888;11.464;2023-03-03T11:13:02;5.60;99.90
612;DHT22;293;53.888;11.464;2023-03-03T11:15:46;5.60;99.90
612;DHT22;293;53.888;11.464;2023-03-03T11:18:23;5.70;99.90
612;DHT22;293;53.888;11.464;2023-03-03T11:20:55;5.60;99.90
612;DHT22;293;53.888;11.464;2023-03-03T11:23:45;5.70;99.90
612;DHT22;293;53.888;11.464;2023-03-03T11:26:24;5.70;99.90
612;DHT22;293;53.888;11.464;2023-03-03T11:29:06;5.80;99.90
612;DHT22;293;53.888;11.464;2023-03-03T11:31:40;5.80;99.90
612;DHT22;293;53.888;11.464;2023-03-03T11:34:19;5.90;99.90
612;DHT22;293;53.888;11.464;2023-03-03T11:36:52;6.00;99.90
612;DHT22;293;53.888;11.464;2023-03-03T11:39:23;6.00;99.90
612;DHT22;293;53.888;11.464;2023-03-03T11:42:00;6.00;99.90
612;DHT22;293;53.888;11.464;2023-03-03T11:44:32;6.10;99.90
612;DHT22;293;53.888;11.464;2023-03-03T11:47:04;6.20;99.90
612;DHT22;293;53.888;11.464;2023-03-03T11:49:35;6.30;99.90
612;DHT22;293;53.888;11.464;2023-03-03T11:52:16;6.40;99.90
612;DHT22;293;53.888;11.464;2023-03-03T11:54:51;6.40;99.90
612;DHT22;293;53.888;11.464;2023-03-03T11:57:24;6.50;99.90
612;DHT22;293;53.888;11.464;2023-03-03T12:00:01;6.30;99.90
612;DHT22;293;53.888;11.464;2023-03-03T12:02:49;6.10;99.90
612;DHT22;293;53.888;11.464;2023-03-03T12:05:29;6.00;99.90
612;DHT22;293;53.888;11.464;2023-03-03T12:08:07;5.80;99.90
612;DHT22;293;53.888;11.464;2023-03-03T12:10:45;5.80;99.90
612;DHT22;293;53.888;11.464;2023-03-03T12:13:21;5.70;99.90
612;DHT22;293;53.888;11.464;2023-03-03T12:15:56;5.70;99.90
612;DHT22;293;53.888;11.464;2023-03-03T12:18:48;5.60;99.90
612;DHT22;293;53.888;11.464;2023-03-03T12:21:32;5.70;99.90
612;DHT22;293;53.888;11.464;2023-03-03T12:24:11;5.90;99.90
612;DHT22;293;53.888;11.464;2023-03-03T12:26:46;6.00;99.90
612;DHT22;293;53.888;11.464;2023-03-03T12:29:25;6.10;99.90
612;DHT22;293;53.888;11.464;2023-03-03T12:32:03;6.30;99.90
612;DHT22;293;53.888;11.464;2023-03-03T12:34:37;6.50;99.90
612;DHT22;293;53.888;11.464;2023-03-03T12:37:26;6.70;99.90
612;DHT22;293;53.888;11.464;2023-03-03T12:40:05;6.80;99.90
612;DHT22;293;53.888;11.464;2023-03-03T12:42:40;6.90;99.90
612;DHT22;293;53.888;11.464;2023-03-03T12:45:24;7.10;99.90
612;DHT22;293;53.888;11.464;2023-03-03T12:47:59;7.00;99.90
612;DHT22;293;53.888;11.464;2023-03-03T12:50:35;7.00;99.90
612;DHT22;293;53.888;11.464;2023-03-03T12:53:16;6.90;99.90
612;DHT22;293;53.888;11.464;2023-03-03T12:55:51;7.00;99.90
612;DHT22;293;53.888;11.464;2023-03-03T12:58:28;6.90;99.90
612;DHT22;293;53.888;11.464;2023-03-03T13:01:11;6.90;99.90
612;DHT22;293;53.888;11.464;2023-03-03T13:03:48;6.70;99.90
612;DHT22;293;53.888;11.464;2023-03-03T13:06:22;6.70;99.90
612;DHT22;293;53.888;11.464;2023-03-03T13:09:02;6.80;99.90
612;DHT22;293;53.888;11.464;2023-03-03T13:11:39;6.70;99.90
612;DHT22;293;53.888;11.464;2023-03-03T13:14:16;6.80;99.90
612;DHT22;293;53.888;11.464;2023-03-03T13:16:53;6.80;99.90
612;DHT22;293;53.888;11.464;2023-03-03T13:19:27;6.80;99.90
612;DHT22;293;53.888;11.464;2023-03-03T13:21:58;6.80;99.90
612;DHT22;293;53.888;11.464;2023-03-03T13:24:32;6.80;99.90
612;DHT22;293;53.888;11.464;2023-03-03T13:27:06;6.80;99.90
612;DHT22;293;53.888;11.464;2023-03-03T13:29:36;6.90;99.90
612;DHT22;293;53.888;11.464;2023-03-03T13:32:11;6.90;99.90
612;DHT22;293;53.888;11.464;2023-03-03T13:34:50;6.90;99.90
612;DHT22;293;53.888;11.464;2023-03-03T13:37:20;6.90;99.90
612;DHT22;293;53.888;11.464;2023-03-03T13:39:55;6.80;99.90
612;DHT22;293;53.888;11.464;2023-03-03T13:42:28;6.70;99.90
612;DHT22;293;53.888;11.464;2023-03-03T13:44:56;6.60;99.90
612;DHT22;293;53.888;11.464;2023-03-03T13:47:28;6.50;99.90
612;DHT22;293;53.888;11.464;2023-03-03T13:50:14;6.50;99.90
612;DHT22;293;53.888;11.464;2023-03-03T13:52:51;6.50;99.90
612;DHT22;293;53.888;11.464;2023-03-03T13:55:23;6.50;99.90
612;DHT22;293;53.888;11.464;2023-03-03T13:57:59;6.40;99.90
612;DHT22;293;53.888;11.464;2023-03-03T14:00:43;6.30;99.90
612;DHT22;293;53.888;11.464;2023-03-03T14:03:39;6.30;99.90
612;DHT22;293;53.888;11.464;2023-03-03T14:06:16;6.30;99.90
612;DHT22;293;53.888;11.464;2023-03-03T14:08:59;6.30;99.90
612;DHT22;293;53.888;11.464;2023-03-03T14:11:35;6.40;99.90
612;DHT22;293;53.888;11.464;2023-03-03T14:14:10;6.30;99.90
612;DHT22;293;53.888;11.464;2023-03-03T14:16:50;6.30;99.90
612;DHT22;293;53.888;11.464;2023-03-03T14:19:23;6.30;99.90
612;DHT22;293;53.888;11.464;2023-03-03T14:22:03;6.40;99.90
612;DHT22;293;53.888;11.464;2023-03-03T14:24:31;6.50;99.90
612;DHT22;293;53.888;11.464;2023-03-03T14:27:23;6.50;99.90
612;DHT22;293;53.888;11.464;2023-03-03T14:29:50;6.60;99.90
612;DHT22;293;53.888;11.464;2023-03-03T14:32:22;6.60;99.90
612;DHT22;293;53.888;11.464;2023-03-03T14:34:57;6.60;99.90
612;DHT22;293;53.888;11.464;2023-03-03T14:37:27;6.50;99.90
612;DHT22;293;53.888;11.464;2023-03-03T14:40:15;6.50;99.90
612;DHT22;293;53.888;11.464;2023-03-03T14:42:53;6.50;99.90
612;DHT22;293;53.888;11.464;2023-03-03T14:45:30;6.40;99.90
612;DHT22;293;53.888;11.464;2023-03-03T14:47:57;6.50;99.90
612;DHT22;293;53.888;11.464;2023-03-03T14:50:34;6.50;99.90
612;DHT22;293;53.888;11.464;2023-03-03T14:53:22;6.40;99.90
612;DHT22;293;53.888;11.464;2023-03-03T14:55:51;6.40;99.90
612;DHT22;293;53.888;11.464;2023-03-03T14:58:26;6.40;99.90
612;DHT22;293;53.888;11.464;2023-03-03T15:01:21;6.40;99.90
612;DHT22;293;53.888;11.464;2023-03-03T15:03:57;6.50;99.90
612;DHT22;293;53.888;11.464;2023-03-03T15:06:34;6.50;99.90
612;DHT22;293;53.888;11.464;2023-03-03T15:09:26;6.50;99.90
612;DHT22;293;53.888;11.464;2023-03-03T15:11:55;6.60;99.90
612;DHT22;293;53.888;11.464;2023-03-03T15:14:29;6.60;99.90
612;DHT22;293;53.888;11.464;2023-03-03T15:16:57;6.50;99.90
612;DHT22;293;53.888;11.464;2023-03-03T15:19:45;6.50;99.90
612;DHT22;293;53.888;11.464;2023-03-03T15:22:21;6.60;99.90
612;DHT22;293;53.888;11.464;2023-03-03T15:24:59;6.50;99.90
612;DHT22;293;53.888;11.464;2023-03-03T15:27:30;6.50;99.90
612;DHT22;293;53.888;11.464;2023-03-03T15:30:03;6.50;99.90
612;DHT22;293;53.888;11.464;2023-03-03T15:32:36;6.50;99.90
612;DHT22;293;53.888;11.464;2023-03-03T15:35:18;6.40;99.90
612;DHT22;293;53.888;11.464;2023-03-03T15:37:51;6.40;99.90
612;DHT22;293;53.888;11.464;2023-03-03T15:40:25;6.40;99.90
612;DHT22;293;53.888;11.464;2023-03-03T15:42:59;6.40;99.90
612;DHT22;293;53.888;11.464;2023-03-03T15:45:31;6.40;99.90
612;DHT22;293;53.888;11.464;2023-03-03T15:48:24;6.40;99.90
612;DHT22;293;53.888;11.464;2023-03-03T15:51:05;6.40;99.90
612;DHT22;293;53.888;11.464;2023-03-03T15:53:47;6.40;99.90
612;DHT22;293;53.888;11.464;2023-03-03T15:56:27;6.40;99.90
612;DHT22;293;53.888;11.464;2023-03-03T16:02:16;6.50;99.90
612;DHT22;293;53.888;11.464;2023-03-03T16:04:51;6.50;99.90
612;DHT22;293;53.888;11.464;2023-03-03T16:07:27;6.50;99.90
612;DHT22;293;53.888;11.464;2023-03-03T16:10:05;6.50;99.90
612;DHT22;293;53.888;11.464;2023-03-03T16:12:46;6.40;99.90
612;DHT22;293;53.888;11.464;2023-03-03T16:15:29;6.40;99.90
612;DHT22;293;53.888;11.464;2023-03-03T16:18:04;6.40;99.90
612;DHT22;293;53.888;11.464;2023-03-03T16:20:36;6.50;99.90
612;DHT22;293;53.888;11.464;2023-03-03T16:23:16;6.40;99.90
612;DHT22;293;53.888;11.464;2023-03-03T16:25:59;6.40;99.90
612;DHT22;293;53.888;11.464;2023-03-03T16:28:37;6.30;99.90
612;DHT22;293;53.888;11.464;2023-03-03T16:31:10;6.30;99.90
612;DHT22;293;53.888;11.464;2023-03-03T16:33:43;6.30;99.90
612;DHT22;293;53.888;11.464;2023-03-03T16:36:26;6.20;99.90
612;DHT22;293;53.888;11.464;2023-03-03T16:39:00;6.10;99.90
612;DHT22;293;53.888;11.464;2023-03-03T16:41:37;6.00;99.90
612;DHT22;293;53.888;11.464;2023-03-03T16:44:20;6.00;99.90
612;DHT22;293;53.888;11.464;2023-03-03T16:46:49;5.90;99.90
612;DHT22;293;53.888;11.464;2023-03-03T16:49:23;5.90;99.90
612;DHT22;293;53.888;11.464;2023-03-03T16:51:55;5.80;99.90
612;DHT22;293;53.888;11.464;2023-03-03T16:54:32;5.70;99.90
612;DHT22;293;53.888;11.464;2023-03-03T16:57:07;5.70;99.90
612;DHT22;293;53.888;11.464;2023-03-03T16:59:51;5.60;99.90
612;DHT22;293;53.888;11.464;2023-03-03T17:05:28;5.40;99.90
612;DHT22;293;53.888;11.464;2023-03-03T17:08:19;5.30;99.90
612;DHT22;293;53.888;11.464;2023-03-03T17:10:51;5.30;99.90
612;DHT22;293;53.888;11.464;2023-03-03T17:16:34;5.30;99.90
612;DHT22;293;53.888;11.464;2023-03-03T17:19:12;5.30;99.90
612;DHT22;293;53.888;11.464;2023-03-03T17:21:56;5.20;99.90
612;DHT22;293;53.888;11.464;2023-03-03T17:24:31;5.20;99.90
612;DHT22;293;53.888;11.464;2023-03-03T17:27:10;5.20;99.90
612;DHT22;293;53.888;11.464;2023-03-03T17:29:48;5.10;99.90
612;DHT22;293;53.888;11.464;2023-03-03T17:35:27;5.00;99.90
612;DHT22;293;53.888;11.464;2023-03-03T17:38:03;4.90;99.90
612;DHT22;293;53.888;11.464;2023-03-03T17:40:45;4.90;99.90